createdAt,value
2023-02-11T00:01:30.711Z,96826.69
2023-02-11T00:03:57.097Z,96829.78
2023-02-11T00:06:23.455Z,96833.47
2023-02-11T00:08:49.843Z,96825.03
2023-02-11T00:11:16.241Z,96822.41
2023-02-11T00:13:42.618Z,96825.63
2023-02-11T00:16:09.054Z,96830.38
2023-02-11T00:18:35.437Z,96827.66
2023-02-11T00:21:01.855Z,96825.13
2023-02-11T00:23:28.239Z,96824.78
2023-02-11T00:25:54.626Z,96828.47
2023-02-11T00:28:21.280Z,96822.47
2023-02-11T00:30:47.773Z,96825.97
2023-02-11T00:33:14.199Z,96825.50
2023-02-11T00:35:40.595Z,96817.16
2023-02-11T00:38:07.012Z,96816.09
2023-02-11T00:40:33.396Z,96817.16
2023-02-11T00:42:59.837Z,96815.72
2023-02-11T00:45:26.199Z,96805.38
2023-02-11T00:47:53.937Z,96812.25
2023-02-11T00:50:20.313Z,96814.53
2023-02-11T00:52:46.698Z,96806.44
2023-02-11T00:55:13.094Z,96806.88
2023-02-11T00:57:39.455Z,96792.34
2023-02-11T01:00:05.890Z,96792.94
2023-02-11T01:02:32.272Z,96783.56
2023-02-11T01:04:58.699Z,96791.41
2023-02-11T01:07:25.142Z,96779.38
2023-02-11T01:09:51.532Z,96788.31
2023-02-11T01:12:17.931Z,96781.19
2023-02-11T01:14:44.320Z,96778.09
2023-02-11T01:17:10.697Z,96772.25
2023-02-11T01:19:37.101Z,96775.47
2023-02-11T01:22:03.491Z,96781.06
2023-02-11T01:24:29.890Z,96774.81
2023-02-11T01:26:56.298Z,96773.47
2023-02-11T01:29:22.706Z,96777.81
2023-02-11T01:31:49.151Z,96785.19
2023-02-11T01:34:15.573Z,96786.19
2023-02-11T01:36:42.002Z,96791.50
2023-02-11T01:39:08.400Z,96786.84
2023-02-11T01:41:34.780Z,96782.97
2023-02-11T01:44:01.149Z,96786.19
2023-02-11T01:46:27.598Z,96779.88
2023-02-11T01:48:54.063Z,96780.28
2023-02-11T01:51:20.550Z,96782.84
2023-02-11T01:53:46.954Z,96779.16
2023-02-11T01:56:13.319Z,96777.31
2023-02-11T01:58:39.713Z,96776.91
2023-02-11T02:01:06.074Z,96776.53
2023-02-11T02:03:32.494Z,96774.22
2023-02-11T02:05:58.946Z,96768.69
2023-02-11T02:08:25.345Z,96761.53
2023-02-11T02:10:51.764Z,96756.66
2023-02-11T02:13:18.137Z,96759.28
2023-02-11T02:15:44.567Z,96756.06
2023-02-11T02:18:11.051Z,96754.88
2023-02-11T02:20:37.526Z,96754.41
2023-02-11T02:23:03.934Z,96756.66
2023-02-11T02:25:30.306Z,96747.88
2023-02-11T02:27:56.776Z,96757.03
2023-02-11T02:30:23.192Z,96751.03
2023-02-11T02:32:49.590Z,96758.03
2023-02-11T02:35:16.048Z,96747.38
2023-02-11T02:37:42.464Z,96739.81
2023-02-11T02:40:08.867Z,96735.84
2023-02-11T02:42:35.241Z,96741.19
2023-02-11T02:45:01.641Z,96737.69
2023-02-11T02:47:28.025Z,96744.88
2023-02-11T02:49:54.417Z,96731.78
2023-02-11T02:52:20.808Z,96733.50
2023-02-11T02:54:47.173Z,96732.44
2023-02-11T02:57:13.588Z,96729.16
2023-02-11T02:59:39.962Z,96725.47
2023-02-11T03:02:06.333Z,96726.78
2023-02-11T03:04:32.706Z,96730.94
2023-02-11T03:06:59.065Z,96731.44
2023-02-11T03:09:25.452Z,96727.72
2023-02-11T03:11:51.831Z,96720.66
2023-02-11T03:14:18.220Z,96718.28
2023-02-11T03:16:44.579Z,96716.75
2023-02-11T03:19:11.016Z,96715.59
2023-02-11T03:21:37.399Z,96721.19
2023-02-11T03:24:03.773Z,96718.22
2023-02-11T03:26:30.197Z,96723.56
2023-02-11T03:28:56.566Z,96713.47
2023-02-11T03:31:23.077Z,96710.84
2023-02-11T03:33:49.576Z,96715.72
2023-02-11T03:36:15.955Z,96706.31
2023-02-11T03:38:42.335Z,96714.06
2023-02-11T03:41:08.751Z,96698.09
2023-02-11T03:43:35.141Z,96704.78
2023-02-11T03:46:01.602Z,96703.22
2023-02-11T03:48:28.029Z,96703.03
2023-02-11T03:50:54.397Z,96709.22
2023-02-11T03:53:20.777Z,96706.91
2023-02-11T03:55:47.149Z,96704.88
2023-02-11T03:58:13.529Z,96695.50
2023-02-11T04:00:39.955Z,96691.44
2023-02-11T04:03:06.372Z,96689.13
2023-02-11T04:05:32.926Z,96690.59
2023-02-11T04:07:59.308Z,96692.25
2023-02-11T04:10:25.703Z,96696.00
2023-02-11T04:12:52.080Z,96697.50
2023-02-11T04:15:18.516Z,96691.66
2023-02-11T04:17:44.908Z,96694.41
2023-02-11T04:20:11.311Z,96685.28
2023-02-11T04:22:37.692Z,96691.78
2023-02-11T04:25:04.076Z,96687.72
2023-02-11T04:27:30.464Z,96689.38
2023-02-11T04:29:56.837Z,96687.34
2023-02-11T04:32:23.290Z,96698.41
2023-02-11T04:34:49.680Z,96694.72
2023-02-11T04:37:16.072Z,96689.00
2023-02-11T04:39:42.441Z,96691.34
2023-02-11T04:42:08.806Z,96699.69
2023-02-11T04:44:35.224Z,96696.06
2023-02-11T04:47:01.613Z,96694.75
2023-02-11T04:49:28.034Z,96688.81
2023-02-11T04:51:54.462Z,96698.50
2023-02-11T04:54:20.852Z,96691.91
2023-02-11T04:56:47.278Z,96684.47
2023-02-11T04:59:13.686Z,96675.19
2023-02-11T05:01:40.149Z,96675.28
2023-02-11T05:04:06.634Z,96680.78
2023-02-11T05:06:33.069Z,96673.34
2023-02-11T05:08:59.458Z,96679.53
2023-02-11T05:11:25.836Z,96683.69
2023-02-11T05:13:52.256Z,96680.13
2023-02-11T05:16:18.713Z,96674.50
2023-02-11T05:18:45.175Z,96675.25
2023-02-11T05:21:11.583Z,96675.25
2023-02-11T05:23:37.992Z,96671.59
2023-02-11T05:26:04.401Z,96668.47
2023-02-11T05:28:30.844Z,96662.47
2023-02-11T05:30:57.289Z,96660.94
2023-02-11T05:33:23.678Z,96655.91
2023-02-11T05:35:50.325Z,96656.38
2023-02-11T05:38:16.902Z,96653.56
2023-02-11T05:40:43.277Z,96655.59
2023-02-11T05:43:09.662Z,96659.16
2023-02-11T05:45:36.109Z,96647.16
2023-02-11T05:48:02.502Z,96657.25
2023-02-11T05:50:28.878Z,96658.91
2023-02-11T05:52:55.324Z,96665.41
2023-02-11T05:55:24.615Z,96665.88
2023-02-11T05:57:51.049Z,96665.94
2023-02-11T06:00:17.443Z,96655.31
2023-02-11T06:02:44.092Z,96660.72
2023-02-11T06:05:10.552Z,96668.69
2023-02-11T06:07:36.949Z,96664.31
2023-02-11T06:10:03.352Z,96659.00
2023-02-11T06:12:29.750Z,96669.75
2023-02-11T06:14:56.132Z,96672.75
2023-02-11T06:17:22.517Z,96668.69
2023-02-11T06:19:48.912Z,96664.63
2023-02-11T06:22:15.323Z,96656.59
2023-02-11T06:25:00.205Z,96649.94
2023-02-11T06:27:27.540Z,96654.56
2023-02-11T06:29:53.927Z,96653.88
2023-02-11T06:32:37.256Z,96658.34
2023-02-11T06:35:06.181Z,96661.16
2023-02-11T06:37:32.549Z,96662.91
2023-02-11T06:39:58.896Z,96671.91
2023-02-11T06:42:25.315Z,96679.25
2023-02-11T06:44:51.728Z,96678.78
2023-02-11T06:47:18.112Z,96680.63
2023-02-11T06:49:44.464Z,96681.97
2023-02-11T06:52:10.880Z,96682.75
2023-02-11T06:54:37.243Z,96682.34
2023-02-11T06:57:03.634Z,96678.00
2023-02-11T06:59:30.036Z,96681.38
2023-02-11T07:01:56.476Z,96686.72
2023-02-11T07:04:22.902Z,96681.47
2023-02-11T07:06:49.293Z,96689.22
2023-02-11T07:09:15.696Z,96679.81
2023-02-11T07:11:42.082Z,96684.56
2023-02-11T07:14:08.496Z,96691.44
2023-02-11T07:16:34.962Z,96702.38
2023-02-11T07:19:01.360Z,96711.66
2023-02-11T07:21:27.778Z,96717.69
2023-02-11T07:23:54.162Z,96707.41
2023-02-11T07:26:20.525Z,96712.44
2023-02-11T07:28:46.897Z,96722.50
2023-02-11T07:31:13.448Z,96722.31
2023-02-11T07:33:39.912Z,96739.56
2023-02-11T07:36:06.286Z,96726.31
2023-02-11T07:38:32.661Z,96725.50
2023-02-11T07:40:59.088Z,96732.47
2023-02-11T07:43:25.465Z,96738.38
2023-02-11T07:45:51.994Z,96726.97
2023-02-11T07:48:18.495Z,96729.47
2023-02-11T07:50:44.898Z,96730.81
2023-02-11T07:53:11.286Z,96743.78
2023-02-11T07:55:37.662Z,96738.50
2023-02-11T07:58:04.029Z,96735.66
2023-02-11T08:00:31.784Z,96734.13
2023-02-11T08:02:58.155Z,96733.53
2023-02-11T08:05:24.527Z,96739.13
2023-02-11T08:07:50.962Z,96747.50
2023-02-11T08:10:17.359Z,96743.69
2023-02-11T08:12:43.737Z,96743.19
2023-02-11T08:15:10.127Z,96737.53
2023-02-11T08:17:36.505Z,96747.66
2023-02-11T08:20:02.885Z,96743.06
2023-02-11T08:22:29.355Z,96746.69
2023-02-11T08:24:55.707Z,96742.03
2023-02-11T08:27:22.074Z,96746.31
2023-02-11T08:29:48.484Z,96746.66
2023-02-11T08:32:14.889Z,96756.78
2023-02-11T08:34:41.300Z,96759.69
2023-02-11T08:37:07.702Z,96762.19
2023-02-11T08:39:34.100Z,96755.03
2023-02-11T08:42:00.489Z,96761.25
2023-02-11T08:44:26.875Z,96766.28
2023-02-11T08:46:53.267Z,96769.09
2023-02-11T08:49:19.660Z,96762.00
2023-02-11T08:51:46.100Z,96769.56
2023-02-11T08:54:12.495Z,96768.03
2023-02-11T08:56:38.978Z,96774.69
2023-02-11T08:59:05.405Z,96777.13
2023-02-11T09:01:31.899Z,96781.38
2023-02-11T09:03:58.367Z,96784.06
2023-02-11T09:06:24.756Z,96783.63
2023-02-11T09:08:51.125Z,96780.34
2023-02-11T09:11:17.501Z,96779.56
2023-02-11T09:13:43.917Z,96784.75
2023-02-11T09:16:10.393Z,96788.75
2023-02-11T09:18:36.781Z,96789.09
2023-02-11T09:21:03.181Z,96794.91
2023-02-11T09:23:29.612Z,96792.94
2023-02-11T09:25:55.999Z,96801.13
2023-02-11T09:28:22.470Z,96795.63
2023-02-11T09:30:48.981Z,96806.66
2023-02-11T09:33:15.518Z,96796.22
2023-02-11T09:35:41.929Z,96796.41
2023-02-11T09:38:08.354Z,96786.22
2023-02-11T09:40:34.719Z,96792.09
2023-02-11T09:43:04.019Z,96794.84
2023-02-11T09:45:30.593Z,96798.44
2023-02-11T09:47:56.971Z,96795.06
2023-02-11T09:50:23.364Z,96790.72
2023-02-11T09:52:49.825Z,96793.94
2023-02-11T09:55:16.178Z,96806.44
2023-02-11T09:57:42.569Z,96807.56
2023-02-11T10:00:08.952Z,96806.16
2023-02-11T10:02:35.368Z,96811.31
2023-02-11T10:05:01.773Z,96828.94
2023-02-11T10:07:28.138Z,96827.56
2023-02-11T10:09:54.532Z,96821.75
2023-02-11T10:12:20.937Z,96821.75
2023-02-11T10:14:47.308Z,96820.09
2023-02-11T10:17:13.750Z,96825.28
2023-02-11T10:19:40.110Z,96815.28
2023-02-11T10:22:06.496Z,96821.91
2023-02-11T10:24:32.879Z,96817.13
2023-02-11T10:26:59.251Z,96810.47
2023-02-11T10:29:25.646Z,96811.72
2023-02-11T10:31:52.047Z,96807.22
2023-02-11T10:34:18.475Z,96799.34
2023-02-11T10:36:44.851Z,96800.16
2023-02-11T10:39:11.264Z,96803.25
2023-02-11T10:41:37.657Z,96800.47
2023-02-11T10:44:04.043Z,96799.06
2023-02-11T10:46:30.467Z,96798.91
2023-02-11T10:48:56.848Z,96797.66
2023-02-11T10:51:23.211Z,96794.41
2023-02-11T10:53:49.601Z,96786.84
2023-02-11T10:56:15.968Z,96791.03
2023-02-11T10:58:42.385Z,96780.50
2023-02-11T11:01:23.412Z,96780.53
2023-02-11T11:03:50.886Z,96781.75
2023-02-11T11:06:17.258Z,96783.31
2023-02-11T11:08:43.645Z,96770.94
2023-02-11T11:11:10.114Z,96765.69
2023-02-11T11:13:36.518Z,96767.22
2023-02-11T11:16:02.988Z,96767.81
2023-02-11T11:18:29.385Z,96774.00
2023-02-11T11:20:55.829Z,96767.94
2023-02-11T11:23:22.205Z,96767.50
2023-02-11T11:25:48.561Z,96774.91
2023-02-11T11:28:14.986Z,96766.63
2023-02-11T11:30:41.516Z,96761.38
2023-02-11T11:33:07.885Z,96766.63
2023-02-11T11:35:34.295Z,96756.75
2023-02-11T11:38:01.922Z,96754.53
2023-02-11T11:40:28.566Z,96753.06
2023-02-11T11:42:54.949Z,96738.66
2023-02-11T11:45:21.327Z,96738.66
2023-02-11T11:47:47.713Z,96740.41
2023-02-11T11:50:14.095Z,96732.09
2023-02-11T11:52:40.514Z,96735.28
2023-02-11T11:55:06.884Z,96721.16
2023-02-11T11:57:33.285Z,96725.81
2023-02-11T11:59:59.666Z,96725.13
2023-02-11T12:02:26.185Z,96718.88
2023-02-11T12:04:52.578Z,96719.25
2023-02-11T12:07:18.955Z,96720.94
2023-02-11T12:09:45.357Z,96711.59
2023-02-11T12:12:11.795Z,96706.41
2023-02-11T12:14:38.221Z,96710.84
2023-02-11T12:17:04.596Z,96703.88
2023-02-11T12:19:30.960Z,96692.66
2023-02-11T12:21:57.325Z,96687.00
2023-02-11T12:24:23.702Z,96694.34
2023-02-11T12:26:50.096Z,96692.19
2023-02-11T12:29:16.476Z,96686.28
2023-02-11T12:31:42.921Z,96689.03
2023-02-11T12:34:09.354Z,96683.69
2023-02-11T12:36:35.733Z,96675.88
2023-02-11T12:39:02.103Z,96678.56
2023-02-11T12:41:28.498Z,96676.59
2023-02-11T12:43:54.900Z,96673.50
2023-02-11T12:46:21.355Z,96665.44
2023-02-11T12:48:47.743Z,96667.06
2023-02-11T12:51:14.108Z,96665.84
2023-02-11T12:53:40.532Z,96659.38
2023-02-11T12:56:06.936Z,96664.16
2023-02-11T12:58:44.449Z,96660.34
2023-02-11T13:01:12.008Z,96648.03
2023-02-11T13:03:38.426Z,96638.38
2023-02-11T13:06:04.825Z,96643.44
2023-02-11T13:08:31.226Z,96633.44
2023-02-11T13:10:57.628Z,96632.47
2023-02-11T13:13:24.053Z,96630.81
2023-02-11T13:15:50.459Z,96620.19
2023-02-11T13:18:19.028Z,96629.69
2023-02-11T13:20:45.631Z,96625.44
2023-02-11T13:23:12.001Z,96625.31
2023-02-11T13:25:38.354Z,96628.22
2023-02-11T13:28:04.763Z,96620.53
2023-02-11T13:30:31.205Z,96623.50
2023-02-11T13:32:57.650Z,96614.38
2023-02-11T13:35:24.044Z,96611.84
2023-02-11T13:37:50.413Z,96609.16
2023-02-11T13:40:16.850Z,96616.78
2023-02-11T13:42:43.214Z,96621.16
2023-02-11T13:45:09.586Z,96620.28
2023-02-11T13:47:35.971Z,96619.19
2023-02-11T13:50:02.372Z,96614.41
2023-02-11T13:52:28.752Z,96615.38
2023-02-11T13:54:55.184Z,96605.44
2023-02-11T13:57:21.560Z,96608.66
2023-02-11T13:59:47.932Z,96604.41
2023-02-11T14:02:14.404Z,96608.25
2023-02-11T14:04:40.862Z,96603.13
2023-02-11T14:07:07.226Z,96600.41
2023-02-11T14:09:33.624Z,96601.59
2023-02-11T14:11:59.982Z,96597.75
2023-02-11T14:14:26.387Z,96596.72
2023-02-11T14:16:52.823Z,96593.88
2023-02-11T14:19:19.238Z,96602.84
2023-02-11T14:21:45.691Z,96594.91
2023-02-11T14:24:12.077Z,96593.50
2023-02-11T14:26:38.503Z,96595.75
2023-02-11T14:29:04.885Z,96595.16
2023-02-11T14:31:31.392Z,96599.03
2023-02-11T14:33:57.908Z,96600.78
2023-02-11T14:36:24.389Z,96604.06
2023-02-11T14:38:50.782Z,96602.72
2023-02-11T14:41:17.180Z,96608.69
2023-02-11T14:43:43.603Z,96598.66
2023-02-11T14:46:10.098Z,96592.50
2023-02-11T14:48:36.555Z,96597.97
2023-02-11T14:51:03.017Z,96586.72
2023-02-11T14:53:29.446Z,96579.38
2023-02-11T14:55:55.839Z,96577.66
2023-02-11T14:58:22.244Z,96585.47
2023-02-11T15:00:48.711Z,96578.94
2023-02-11T15:03:15.169Z,96575.66
2023-02-11T15:05:41.558Z,96568.41
2023-02-11T15:08:09.974Z,96573.91
2023-02-11T15:10:36.454Z,96574.69
2023-02-11T15:13:02.841Z,96576.13
2023-02-11T15:15:29.243Z,96580.94
2023-02-11T15:17:55.628Z,96575.69
2023-02-11T15:20:22.065Z,96572.19
2023-02-11T15:22:48.448Z,96575.28
2023-02-11T15:25:14.850Z,96573.78
2023-02-11T15:27:41.311Z,96571.53
2023-02-11T15:30:07.693Z,96569.31
2023-02-11T15:32:34.105Z,96557.38
2023-02-11T15:35:00.573Z,96555.53
2023-02-11T15:37:26.961Z,96560.84
2023-02-11T15:39:53.442Z,96560.63
2023-02-11T15:42:19.842Z,96567.78
2023-02-11T15:44:46.540Z,96562.41
2023-02-11T15:47:14.353Z,96557.88
2023-02-11T15:49:40.746Z,96556.38
2023-02-11T15:52:07.317Z,96547.97
2023-02-11T15:54:33.700Z,96560.91
2023-02-11T15:57:00.144Z,96561.59
2023-02-11T15:59:26.570Z,96558.59
2023-02-11T16:01:53.012Z,96564.75
2023-02-11T16:04:19.439Z,96559.97
2023-02-11T16:06:45.865Z,96549.06
2023-02-11T16:09:12.343Z,96552.06
2023-02-11T16:11:39.096Z,96556.31
2023-02-11T16:14:07.109Z,96549.75
2023-02-11T16:16:33.663Z,96554.75
2023-02-11T16:19:05.242Z,96547.09
2023-02-11T16:21:32.337Z,96544.81
2023-02-11T16:23:58.774Z,96556.00
2023-02-11T16:26:25.171Z,96549.81
2023-02-11T16:28:51.554Z,96565.31
2023-02-11T16:31:18.163Z,96555.94
2023-02-11T16:33:44.598Z,96566.16
2023-02-11T16:36:11.025Z,96568.22
2023-02-11T16:38:37.459Z,96567.69
2023-02-11T16:41:03.861Z,96566.19
2023-02-11T16:43:30.266Z,96572.22
2023-02-11T16:45:56.641Z,96572.16
2023-02-11T16:48:23.038Z,96576.66
2023-02-11T16:50:52.888Z,96570.63
2023-02-11T16:53:19.736Z,96571.84
2023-02-11T16:55:46.129Z,96571.63
2023-02-11T16:58:12.508Z,96572.75
2023-02-11T17:00:38.923Z,96574.97
2023-02-11T17:03:05.363Z,96577.25
2023-02-11T17:05:37.823Z,96578.69
2023-02-11T17:08:09.288Z,96576.25
2023-02-11T17:10:35.661Z,96588.19
2023-02-11T17:13:02.063Z,96585.41
2023-02-11T17:15:28.461Z,96579.66
2023-02-11T17:17:54.832Z,96584.69
2023-02-11T17:20:21.223Z,96587.91
2023-02-11T17:22:47.697Z,96591.53
2023-02-11T17:25:14.109Z,96587.56
2023-02-11T17:27:40.508Z,96587.69
2023-02-11T17:30:06.949Z,96591.66
2023-02-11T17:32:33.326Z,96594.38
2023-02-11T17:34:59.774Z,96600.66
2023-02-11T17:37:26.169Z,96596.63
2023-02-11T17:39:52.534Z,96603.88
2023-02-11T17:42:18.929Z,96607.94
2023-02-11T17:44:45.338Z,96605.09
2023-02-11T17:47:11.727Z,96607.19
2023-02-11T17:49:38.106Z,96614.44
2023-02-11T17:52:04.476Z,96617.50
2023-02-11T17:54:30.849Z,96624.09
2023-02-11T17:56:58.422Z,96618.78
2023-02-11T17:59:25.052Z,96627.25
2023-02-11T18:01:51.453Z,96626.75
2023-02-11T18:04:17.920Z,96628.94
2023-02-11T18:06:44.361Z,96631.13
2023-02-11T18:09:10.746Z,96640.00
2023-02-11T18:11:37.145Z,96629.56
2023-02-11T18:14:03.573Z,96634.84
2023-02-11T18:16:30.011Z,96639.03
2023-02-11T18:18:56.451Z,96640.31
2023-02-11T18:21:22.908Z,96634.78
2023-02-11T18:23:49.290Z,96647.22
2023-02-11T18:26:15.683Z,96634.16
2023-02-11T18:28:45.265Z,96638.91
2023-02-11T18:31:12.282Z,96639.16
2023-02-11T18:33:38.734Z,96645.97
2023-02-11T18:36:05.138Z,96638.00
2023-02-11T18:38:31.522Z,96647.91
2023-02-11T18:40:57.873Z,96646.69
2023-02-11T18:43:24.291Z,96654.91
2023-02-11T18:45:51.105Z,96651.84
2023-02-11T18:48:17.758Z,96650.63
2023-02-11T18:50:44.144Z,96660.59
2023-02-11T18:53:10.569Z,96659.69
2023-02-11T18:55:37.826Z,96660.16
2023-02-11T18:58:04.192Z,96658.34
2023-02-11T19:00:30.579Z,96653.97
2023-02-11T19:02:56.960Z,96656.16
2023-02-11T19:05:23.354Z,96658.47
2023-02-11T19:07:49.732Z,96657.38
2023-02-11T19:10:16.111Z,96664.28
2023-02-11T19:12:42.568Z,96674.69
2023-02-11T19:15:08.941Z,96669.28
2023-02-11T19:17:35.355Z,96662.28
2023-02-11T19:20:01.760Z,96671.47
2023-02-11T19:22:28.173Z,96673.00
2023-02-11T19:24:54.623Z,96674.94
2023-02-11T19:27:20.989Z,96670.91
2023-02-11T19:29:47.488Z,96667.75
2023-02-11T19:32:13.905Z,96671.59
2023-02-11T19:34:40.288Z,96667.75
2023-02-11T19:37:06.688Z,96669.28
2023-02-11T19:39:33.081Z,96672.38
2023-02-11T19:41:59.478Z,96673.91
2023-02-11T19:44:25.887Z,96679.16
2023-02-11T19:46:52.292Z,96678.03
2023-02-11T19:49:18.697Z,96685.59
2023-02-11T19:51:45.082Z,96681.16
2023-02-11T19:54:11.468Z,96669.53
2023-02-11T19:56:37.870Z,96680.72
2023-02-11T19:59:04.269Z,96677.34
2023-02-11T20:01:30.743Z,96680.88
2023-02-11T20:03:57.207Z,96674.66
2023-02-11T20:06:23.650Z,96671.72
2023-02-11T20:08:50.047Z,96673.44
2023-02-11T20:11:16.448Z,96661.44
2023-02-11T20:13:42.825Z,96671.63
2023-02-11T20:16:09.317Z,96668.56
2023-02-11T20:18:35.801Z,96668.56
2023-02-11T20:21:02.189Z,96664.72
2023-02-11T20:23:28.573Z,96668.63
2023-02-11T20:25:54.956Z,96671.06
2023-02-11T20:28:21.417Z,96666.97
2023-02-11T20:30:47.799Z,96662.03
2023-02-11T20:33:14.278Z,96656.94
2023-02-11T20:35:40.662Z,96660.53
2023-02-11T20:38:07.063Z,96652.81
2023-02-11T20:40:33.448Z,96654.22
2023-02-11T20:42:59.854Z,96657.31
2023-02-11T20:45:26.280Z,96655.50
2023-02-11T20:47:52.650Z,96662.66
2023-02-11T20:50:19.061Z,96657.50
2023-02-11T20:52:45.458Z,96658.31
2023-02-11T20:55:11.829Z,96660.44
2023-02-11T20:57:38.226Z,96653.59
2023-02-11T21:00:04.604Z,96654.59
2023-02-11T21:02:31.009Z,96667.28
2023-02-11T21:04:57.411Z,96665.75
2023-02-11T21:07:23.779Z,96665.31
2023-02-11T21:09:50.170Z,96663.31
2023-02-11T21:12:16.557Z,96660.03
2023-02-11T21:14:42.977Z,96651.34
2023-02-11T21:17:09.367Z,96657.94
2023-02-11T21:19:35.789Z,96658.84
2023-02-11T21:22:02.149Z,96665.22
2023-02-11T21:24:28.509Z,96662.91
2023-02-11T21:26:54.930Z,96654.88
2023-02-11T21:29:21.321Z,96655.78
2023-02-11T21:31:47.792Z,96658.78
2023-02-11T21:34:14.211Z,96655.59
2023-02-11T21:36:40.600Z,96663.94
2023-02-11T21:39:07.052Z,96658.03
2023-02-11T21:41:33.424Z,96653.25
2023-02-11T21:43:59.805Z,96655.88
2023-02-11T21:46:26.377Z,96654.16
2023-02-11T21:48:52.754Z,96654.63
2023-02-11T21:51:19.174Z,96650.06
2023-02-11T21:53:45.583Z,96645.97
2023-02-11T21:56:11.961Z,96656.03
2023-02-11T21:58:38.398Z,96655.59
2023-02-11T22:01:04.833Z,96659.84
2023-02-11T22:03:31.235Z,96662.41
2023-02-11T22:05:57.807Z,96663.00
2023-02-11T22:08:24.324Z,96666.22
2023-02-11T22:10:54.695Z,96667.91
2023-02-11T22:13:21.069Z,96662.22
2023-02-11T22:15:47.446Z,96670.56
2023-02-11T22:18:14.611Z,96670.91
2023-02-11T22:20:41.027Z,96670.28
2023-02-11T22:23:07.413Z,96662.25
2023-02-11T22:25:35.002Z,96667.38
2023-02-11T22:28:01.419Z,96673.84
2023-02-11T22:30:28.046Z,96663.63
2023-02-11T22:32:54.472Z,96662.22
2023-02-11T22:35:20.831Z,96660.81
2023-02-11T22:37:47.247Z,96669.31
2023-02-11T22:40:13.678Z,96660.66
2023-02-11T22:42:40.068Z,96668.84
2023-02-11T22:45:06.469Z,96662.69
2023-02-11T22:47:32.884Z,96658.34
2023-02-11T22:49:59.282Z,96662.84
2023-02-11T22:52:25.679Z,96669.03
2023-02-11T22:54:52.092Z,96667.63
2023-02-11T22:57:18.708Z,96658.50
2023-02-11T22:59:45.078Z,96665.78
2023-02-11T23:02:11.665Z,96663.63
2023-02-11T23:04:38.144Z,96659.78
2023-02-11T23:07:05.669Z,96664.44
2023-02-11T23:09:32.118Z,96659.19
2023-02-11T23:11:58.477Z,96660.78
2023-02-11T23:14:26.014Z,96657.06
2023-02-11T23:16:52.486Z,96657.34
2023-02-11T23:19:19.005Z,96657.81
2023-02-11T23:21:45.393Z,96656.59
2023-02-11T23:24:13.827Z,96649.94
2023-02-11T23:26:40.768Z,96647.91
2023-02-11T23:29:07.192Z,96649.56
2023-02-11T23:31:33.702Z,96663.47
2023-02-11T23:34:00.147Z,96657.63
2023-02-11T23:36:26.574Z,96656.09
2023-02-11T23:38:52.973Z,96652.34
2023-02-11T23:41:19.435Z,96658.69
2023-02-11T23:43:45.805Z,96652.97
2023-02-11T23:46:12.305Z,96649.25
2023-02-11T23:48:38.718Z,96644.91
2023-02-11T23:51:05.074Z,96652.97
2023-02-11T23:53:31.462Z,96646.50
2023-02-11T23:55:57.826Z,96648.69
2023-02-11T23:58:24.201Z,96649.00
